Main page
METAR-TAF:

METAR-TAF

Airports :

Henderson Field

Midway, United States

latitude: 28-13N, longitude: 177-22W, elevation: 4 m

METAR: missing

Time: 08:12 (18:12 UTC)

Forecast

The report was made 52 minutes ago, at 17:20 UTC
Forecast valid from 21 at 18 UTC to 22 at 18 UTC
Wind 12 kt from the East with gusts up to 20 kt
Visibility: 10 km
Scattered clouds at a height of 2500 ft
Scattered clouds at a height of 4500 ft

TAF: PMDY 211720Z 2118/2218 10012G20KT P6SM SCT025 SCT045 AMD NOT SKED

Weather observations and forecasts of more than 4000 airports (METAR and TAF reports).

The available stations are represented by yellow and red dots on the map.

Hover mouse over dot to see the name of the station.

Then click to see weather observations and forecasts.

To change the map : click on the green buttons with a black cross to zoom in, on the green button with a dash to zoom out, or on the green arrows for adjacent maps.


METAR-TAF: